Disclaimer

Please do not use the information listed here in-flight or in-navigation, as they are not provided to us by the airports but are provided by volunteers, so they might be outdated.

Search


Regions


Airport information page

Radio informations:
Tower (TWR) - 119.2 MHz
CON - 128.45 MHz
Ground (GND) - 121.7 MHz

Airport informations:
Latitude: 56° 16' 00.00" N
Longitude: 015° 15' 54.00" E
Elevation: 191 feet - 58 meters
Operating hours: Remarks
Operating agency: Military-civil joint use airport
Timezone: UTC+1(+2DT) - Last Sunday in March to last Sunday in October
Fuel: Jet A1, without icing nhibitor.

100/130 MIL Spec, low lead, aviation gasoline (BLUE)

Runway information:
01/19 - 7648 x 148 feet< - >2331 x 45 meters

Recent METARs:
ESDF 151150Z 05009KT 9999 FEW010 BKN034 01/M00 Q1032
ESDF 151220Z 05008KT 9999 -SHSN BKN009 BKN032 01/M00 Q1031
ESDF 151250Z 04007KT 9999 -SHRASN BKN007 01/00 Q1031

Airport on the map: